createdAt,value
2018-03-07T00:00:02.239Z,0.00
2018-03-07T00:01:02.219Z,0.00
2018-03-07T00:02:55.577Z,0.00
2018-03-07T00:03:55.535Z,0.00
2018-03-07T00:05:48.383Z,0.00
2018-03-07T00:06:48.360Z,0.00
2018-03-07T00:08:41.746Z,0.00
2018-03-07T00:09:41.719Z,0.00
2018-03-07T00:11:34.544Z,0.00
2018-03-07T00:12:34.519Z,0.00
2018-03-07T00:14:27.383Z,0.00
2018-03-07T00:15:27.353Z,0.00
2018-03-07T00:17:20.687Z,0.00
2018-03-07T00:18:20.663Z,0.00
2018-03-07T00:20:14.019Z,0.00
2018-03-07T00:21:13.986Z,0.00
2018-03-07T00:23:06.826Z,0.00
2018-03-07T00:24:06.803Z,0.00
2018-03-07T00:26:00.164Z,0.00
2018-03-07T00:27:00.129Z,0.00
2018-03-07T00:28:53.466Z,0.00
2018-03-07T00:29:53.441Z,0.00
2018-03-07T00:31:46.792Z,0.00
2018-03-07T00:32:46.766Z,0.00
2018-03-07T00:34:40.111Z,0.00
2018-03-07T00:35:40.078Z,0.00
2018-03-07T00:37:33.436Z,0.00
2018-03-07T00:38:33.398Z,0.00
2018-03-07T00:40:26.739Z,0.00
2018-03-07T00:41:26.716Z,0.00
2018-03-07T00:43:20.078Z,0.00
2018-03-07T00:44:20.036Z,0.00
2018-03-07T00:46:12.879Z,0.00
2018-03-07T00:47:12.858Z,0.00
2018-03-07T00:49:06.211Z,0.00
2018-03-07T00:50:06.176Z,0.00
2018-03-07T00:51:59.528Z,0.00
2018-03-07T00:52:59.504Z,0.00
2018-03-07T00:54:52.869Z,0.00
2018-03-07T00:55:52.827Z,0.00
2018-03-07T00:57:45.682Z,0.00
2018-03-07T00:58:45.652Z,0.00
2018-03-07T01:00:38.514Z,0.00
2018-03-07T01:01:38.475Z,0.00
2018-03-07T01:03:31.324Z,0.00
2018-03-07T01:04:31.298Z,0.00
2018-03-07T01:06:24.660Z,0.00
2018-03-07T01:07:24.653Z,0.00
2018-03-07T01:09:17.963Z,0.00
2018-03-07T01:10:17.938Z,0.00
2018-03-07T01:12:11.297Z,0.00
2018-03-07T01:13:11.257Z,0.00
2018-03-07T01:15:04.103Z,0.00
2018-03-07T01:16:04.080Z,0.00
2018-03-07T01:17:57.436Z,0.00
2018-03-07T01:18:57.401Z,0.00
2018-03-07T01:20:50.243Z,0.00
2018-03-07T01:21:50.223Z,0.00
2018-03-07T01:23:43.589Z,0.00
2018-03-07T01:24:43.541Z,0.00
2018-03-07T01:26:36.885Z,0.00
2018-03-07T01:27:36.859Z,0.00
2018-03-07T01:29:29.723Z,0.00
2018-03-07T01:30:29.684Z,0.00
2018-03-07T01:32:23.028Z,0.00
2018-03-07T01:33:22.999Z,0.00
2018-03-07T01:35:16.368Z,0.00
2018-03-07T01:36:16.316Z,0.00
2018-03-07T01:38:09.196Z,0.00
2018-03-07T01:39:09.168Z,0.00
2018-03-07T01:41:02.536Z,0.00
2018-03-07T01:42:02.485Z,0.00
2018-03-07T01:43:55.836Z,0.00
2018-03-07T01:44:55.811Z,0.00
2018-03-07T01:46:49.179Z,0.00
2018-03-07T01:47:49.128Z,0.00
2018-03-07T01:49:41.978Z,0.00
2018-03-07T01:50:41.965Z,0.00
2018-03-07T01:52:34.819Z,0.00
2018-03-07T01:53:34.799Z,0.00
2018-03-07T01:55:28.132Z,0.00
2018-03-07T01:56:28.108Z,0.00
2018-03-07T01:58:20.977Z,0.00
2018-03-07T01:59:20.937Z,0.00
2018-03-07T02:01:14.273Z,0.00
2018-03-07T02:02:14.252Z,0.00
2018-03-07T02:04:07.113Z,0.00
2018-03-07T02:05:07.076Z,0.00
2018-03-07T02:07:00.424Z,0.00
2018-03-07T02:08:00.391Z,0.00
2018-03-07T02:09:53.745Z,0.00
2018-03-07T02:10:53.707Z,0.00
2018-03-07T02:12:47.055Z,0.00
2018-03-07T02:13:47.027Z,0.00
2018-03-07T02:15:39.894Z,0.00
2018-03-07T02:16:39.853Z,0.00
2018-03-07T02:18:33.195Z,0.00
2018-03-07T02:19:33.178Z,0.00
2018-03-07T02:21:26.527Z,0.00
2018-03-07T02:22:26.492Z,0.00
2018-03-07T02:24:19.834Z,0.00
2018-03-07T02:25:19.805Z,0.00
2018-03-07T02:27:12.672Z,0.00
2018-03-07T02:28:12.634Z,0.00
2018-03-07T02:30:05.981Z,0.00
2018-03-07T02:31:05.958Z,0.00
2018-03-07T02:32:58.823Z,0.00
2018-03-07T02:33:58.786Z,0.00
2018-03-07T02:35:52.125Z,0.00
2018-03-07T02:36:52.104Z,0.00
2018-03-07T02:38:45.462Z,0.00
2018-03-07T02:39:45.424Z,0.00
2018-03-07T02:41:38.761Z,0.00
2018-03-07T02:42:38.741Z,0.00
2018-03-07T02:44:31.610Z,0.00
2018-03-07T02:45:31.566Z,0.00
2018-03-07T02:47:24.917Z,0.00
2018-03-07T02:48:24.893Z,0.00
2018-03-07T02:50:17.755Z,0.00
2018-03-07T02:51:17.714Z,0.00
2018-03-07T02:53:10.558Z,0.00
2018-03-07T02:54:10.541Z,0.00
2018-03-07T02:56:03.396Z,0.00
2018-03-07T02:57:03.358Z,0.00
2018-03-07T02:58:56.206Z,0.00
2018-03-07T02:59:56.179Z,0.00
2018-03-07T03:01:49.040Z,0.00
2018-03-07T03:02:49.007Z,0.00
2018-03-07T03:04:42.349Z,0.00
2018-03-07T03:05:42.327Z,0.00
2018-03-07T03:07:35.197Z,0.00
2018-03-07T03:08:35.152Z,0.00
2018-03-07T03:10:27.997Z,0.00
2018-03-07T03:11:28.017Z,0.00
2018-03-07T03:13:20.835Z,0.00
2018-03-07T03:14:20.797Z,0.00
2018-03-07T03:16:14.155Z,0.00
2018-03-07T03:17:14.127Z,0.00
2018-03-07T03:19:06.932Z,0.00
2018-03-07T03:20:06.891Z,0.00
2018-03-07T03:21:59.727Z,0.00
2018-03-07T03:22:59.698Z,0.00
2018-03-07T03:24:53.066Z,0.00
2018-03-07T03:25:53.028Z,0.00
2018-03-07T03:27:46.354Z,0.00
2018-03-07T03:28:46.329Z,0.00
2018-03-07T03:30:39.665Z,0.00
2018-03-07T03:31:39.626Z,0.00
2018-03-07T03:33:32.449Z,0.00
2018-03-07T03:34:32.429Z,0.00
2018-03-07T03:36:25.759Z,0.00
2018-03-07T03:37:25.721Z,0.00
2018-03-07T03:39:18.545Z,0.00
2018-03-07T03:40:18.525Z,0.00
2018-03-07T03:42:11.374Z,0.00
2018-03-07T03:43:11.324Z,0.00
2018-03-07T03:45:04.648Z,0.00
2018-03-07T03:46:04.621Z,0.00
2018-03-07T03:47:57.959Z,0.00
2018-03-07T03:48:57.918Z,0.00
2018-03-07T03:50:51.237Z,0.00
2018-03-07T03:51:51.214Z,0.00
2018-03-07T03:53:44.560Z,0.00
2018-03-07T03:54:44.509Z,0.00
2018-03-07T03:56:37.840Z,0.00
2018-03-07T03:57:37.816Z,0.00
2018-03-07T03:59:30.657Z,0.00
2018-03-07T04:00:30.613Z,0.00
2018-03-07T04:02:23.479Z,0.00
2018-03-07T04:03:23.426Z,0.00
2018-03-07T04:05:16.768Z,0.00
2018-03-07T04:06:16.739Z,0.00
2018-03-07T04:08:09.549Z,0.00
2018-03-07T04:09:09.522Z,0.00
2018-03-07T04:11:02.856Z,0.00
2018-03-07T04:12:02.822Z,0.00
2018-03-07T04:13:56.131Z,0.00
2018-03-07T04:14:56.117Z,0.00
2018-03-07T04:16:48.953Z,0.00
2018-03-07T04:17:48.914Z,0.00
2018-03-07T04:19:42.238Z,0.00
2018-03-07T04:20:42.214Z,0.00
2018-03-07T04:22:35.552Z,0.00
2018-03-07T04:23:35.516Z,0.00
2018-03-07T04:25:28.368Z,0.00
2018-03-07T04:26:28.313Z,0.00
2018-03-07T04:28:21.167Z,0.00
2018-03-07T04:29:21.130Z,0.00
2018-03-07T04:31:13.951Z,0.00
2018-03-07T04:32:13.930Z,0.00
2018-03-07T04:34:07.279Z,0.00
2018-03-07T04:35:07.242Z,0.00
2018-03-07T04:37:00.557Z,0.00
2018-03-07T04:38:00.534Z,0.00
2018-03-07T04:39:53.868Z,0.00
2018-03-07T04:40:53.830Z,0.00
2018-03-07T04:42:47.162Z,0.00
2018-03-07T04:43:47.134Z,0.00
2018-03-07T04:45:40.473Z,0.00
2018-03-07T04:46:40.438Z,0.00
2018-03-07T04:48:33.263Z,0.00
2018-03-07T04:49:33.237Z,0.00
2018-03-07T04:51:26.076Z,0.00
2018-03-07T04:52:26.040Z,0.00
2018-03-07T04:54:19.377Z,0.00
2018-03-07T04:55:19.334Z,0.00
2018-03-07T04:57:12.667Z,0.00
2018-03-07T04:58:12.635Z,0.00
2018-03-07T05:00:05.955Z,0.00
2018-03-07T05:01:05.931Z,0.00
2018-03-07T05:02:59.263Z,0.00
2018-03-07T05:03:59.229Z,0.00
2018-03-07T05:05:52.544Z,0.00
2018-03-07T05:06:52.525Z,0.00
2018-03-07T05:08:45.861Z,0.00
2018-03-07T05:09:45.822Z,0.00
2018-03-07T05:11:39.140Z,0.00
2018-03-07T05:12:39.120Z,0.00
2018-03-07T05:14:32.145Z,0.00
2018-03-07T05:15:31.938Z,0.00
2018-03-07T05:17:25.258Z,0.00
2018-03-07T05:18:25.234Z,0.00
2018-03-07T05:20:18.076Z,0.00
2018-03-07T05:21:18.036Z,0.00
2018-03-07T05:23:11.366Z,0.00
2018-03-07T05:24:11.344Z,0.00
2018-03-07T05:26:04.181Z,0.00
2018-03-07T05:27:04.145Z,0.00
2018-03-07T05:28:57.485Z,0.00
2018-03-07T05:29:57.450Z,0.00
2018-03-07T05:31:50.287Z,0.00
2018-03-07T05:32:50.248Z,0.00
2018-03-07T05:34:43.078Z,0.00
2018-03-07T05:35:43.060Z,0.00
2018-03-07T05:37:36.397Z,0.00
2018-03-07T05:38:36.381Z,0.00
2018-03-07T05:40:29.194Z,0.00
2018-03-07T05:41:29.162Z,0.00
2018-03-07T05:43:22.502Z,0.00
2018-03-07T05:44:22.458Z,0.00
2018-03-07T05:46:15.781Z,0.00
2018-03-07T05:47:15.759Z,0.00
2018-03-07T05:49:08.595Z,0.00
2018-03-07T05:50:08.565Z,0.00
2018-03-07T05:52:01.883Z,0.00
2018-03-07T05:53:01.849Z,0.00
2018-03-07T05:54:55.187Z,0.00
2018-03-07T05:55:55.151Z,0.00
2018-03-07T05:57:48.464Z,0.00
2018-03-07T05:58:48.446Z,0.00
2018-03-07T06:00:41.779Z,0.00
2018-03-07T06:01:41.738Z,0.00
2018-03-07T06:03:35.076Z,0.00
2018-03-07T06:04:35.048Z,0.00
2018-03-07T06:06:28.393Z,0.00
2018-03-07T06:07:28.350Z,0.00
2018-03-07T06:09:21.164Z,0.00
2018-03-07T06:10:21.139Z,0.00
2018-03-07T06:12:13.998Z,0.00
2018-03-07T06:13:13.940Z,0.00
2018-03-07T06:15:07.264Z,0.00
2018-03-07T06:16:07.237Z,0.00
2018-03-07T06:18:00.571Z,0.00
2018-03-07T06:19:00.533Z,0.00
2018-03-07T06:20:53.858Z,0.00
2018-03-07T06:21:53.829Z,0.00
2018-03-07T06:23:47.160Z,0.00
2018-03-07T06:24:47.128Z,0.00
2018-03-07T06:26:39.962Z,0.00
2018-03-07T06:27:39.930Z,0.00
2018-03-07T06:29:33.277Z,0.00
2018-03-07T06:30:33.232Z,0.00
2018-03-07T06:32:26.566Z,0.00
2018-03-07T06:33:26.563Z,5.63
2018-03-07T06:35:19.346Z,5.63
2018-03-07T06:36:19.292Z,5.63
2018-03-07T06:38:12.678Z,5.63
2018-03-07T06:39:12.617Z,5.63
2018-03-07T06:41:05.985Z,5.63
2018-03-07T06:42:05.950Z,5.63
2018-03-07T06:43:59.783Z,5.63
2018-03-07T06:44:59.251Z,5.63
2018-03-07T06:46:52.608Z,5.63
2018-03-07T06:47:52.566Z,5.63
2018-03-07T06:49:45.918Z,0.00
2018-03-07T06:50:45.896Z,0.00
2018-03-07T06:52:39.248Z,0.00
2018-03-07T06:53:39.208Z,0.00
2018-03-07T06:55:32.545Z,0.00
2018-03-07T06:56:32.520Z,0.00
2018-03-07T06:58:25.876Z,0.00
2018-03-07T06:59:25.839Z,0.00
2018-03-07T07:01:19.201Z,5.63
2018-03-07T07:02:19.176Z,5.63
2018-03-07T07:04:12.540Z,5.63
2018-03-07T07:05:12.497Z,5.63
2018-03-07T07:07:05.879Z,5.63
2018-03-07T07:08:05.813Z,11.25
2018-03-07T07:09:59.182Z,11.25
2018-03-07T07:10:59.136Z,16.88
2018-03-07T07:12:52.480Z,11.25
2018-03-07T07:13:52.461Z,16.88
2018-03-07T07:15:45.317Z,11.25
2018-03-07T07:16:45.321Z,11.25
2018-03-07T07:18:38.626Z,11.25
2018-03-07T07:19:38.643Z,11.25
2018-03-07T07:21:31.963Z,11.25
2018-03-07T07:22:31.959Z,16.88
2018-03-07T07:24:25.295Z,16.88
2018-03-07T07:25:25.254Z,16.88
2018-03-07T07:27:18.601Z,16.88
2018-03-07T07:28:18.671Z,16.88
2018-03-07T07:30:11.913Z,16.88
2018-03-07T07:31:11.956Z,16.88
2018-03-07T07:33:05.249Z,11.25
2018-03-07T07:34:05.212Z,16.88
2018-03-07T07:35:58.548Z,16.88
2018-03-07T07:36:58.518Z,16.88
2018-03-07T07:38:51.875Z,16.88
2018-03-07T07:39:51.837Z,16.88
2018-03-07T07:41:45.185Z,11.25
2018-03-07T07:42:45.163Z,11.25
2018-03-07T07:44:38.538Z,16.88
2018-03-07T07:45:38.494Z,16.88
2018-03-07T07:47:31.841Z,16.88
2018-03-07T07:48:31.818Z,16.88
2018-03-07T07:50:25.180Z,16.88
2018-03-07T07:51:25.137Z,11.25
2018-03-07T07:53:18.483Z,11.25
2018-03-07T07:54:18.457Z,11.25
2018-03-07T07:56:11.996Z,11.25
2018-03-07T07:57:11.953Z,11.25
2018-03-07T07:59:04.803Z,16.88
2018-03-07T08:00:04.772Z,16.88
2018-03-07T08:01:57.803Z,16.88
2018-03-07T08:02:57.597Z,16.88
2018-03-07T08:04:50.951Z,22.50
2018-03-07T08:05:50.928Z,22.50
2018-03-07T08:07:44.286Z,16.88
2018-03-07T08:08:44.250Z,16.88
2018-03-07T08:10:37.586Z,16.88
2018-03-07T08:11:37.568Z,16.88
2018-03-07T08:13:30.953Z,16.88
2018-03-07T08:14:30.896Z,16.88
2018-03-07T08:16:24.250Z,16.88
2018-03-07T08:17:24.226Z,16.88
2018-03-07T08:19:17.593Z,16.88
2018-03-07T08:20:17.624Z,16.88
2018-03-07T08:22:10.899Z,16.88
2018-03-07T08:23:10.877Z,16.88
2018-03-07T08:25:04.245Z,16.88
2018-03-07T08:26:04.198Z,16.88
2018-03-07T08:27:57.546Z,16.88
2018-03-07T08:28:57.550Z,16.88
2018-03-07T08:30:50.885Z,16.88
2018-03-07T08:31:50.847Z,16.88
2018-03-07T08:33:44.193Z,16.88
2018-03-07T08:34:44.167Z,16.88
2018-03-07T08:36:37.535Z,16.88
2018-03-07T08:37:37.505Z,16.88
2018-03-07T08:39:30.343Z,16.88
2018-03-07T08:40:30.388Z,11.25
2018-03-07T08:42:23.677Z,5.63
2018-03-07T08:43:23.646Z,11.25
2018-03-07T08:45:16.982Z,11.25
2018-03-07T08:46:16.957Z,11.25
2018-03-07T08:48:09.829Z,16.88
2018-03-07T08:49:09.792Z,16.88
2018-03-07T08:51:03.134Z,16.88
2018-03-07T08:52:03.109Z,16.88
2018-03-07T08:53:56.472Z,16.88
2018-03-07T08:54:56.447Z,22.50
2018-03-07T08:56:49.283Z,28.13
2018-03-07T08:57:49.258Z,28.13
2018-03-07T08:59:42.622Z,33.75
2018-03-07T09:00:42.579Z,39.38
2018-03-07T09:02:35.428Z,33.75
2018-03-07T09:03:35.408Z,33.75
2018-03-07T09:05:28.272Z,33.75
2018-03-07T09:06:28.235Z,33.75
2018-03-07T09:08:21.576Z,33.75
2018-03-07T09:09:21.557Z,33.75
2018-03-07T09:11:14.918Z,33.75
2018-03-07T09:12:14.879Z,33.75
2018-03-07T09:14:08.222Z,39.38
2018-03-07T09:15:08.192Z,39.38
2018-03-07T09:17:01.589Z,45.00
2018-03-07T09:18:01.525Z,39.38
2018-03-07T09:19:54.377Z,45.00
2018-03-07T09:20:54.348Z,39.38
2018-03-07T09:22:47.211Z,39.38
2018-03-07T09:23:47.176Z,28.13
2018-03-07T09:25:40.517Z,33.75
2018-03-07T09:26:40.500Z,39.38
2018-03-07T09:28:33.857Z,39.38
2018-03-07T09:29:33.830Z,33.75
2018-03-07T09:31:27.249Z,39.38
2018-03-07T09:32:27.145Z,45.00
2018-03-07T09:34:20.010Z,50.63
2018-03-07T09:35:19.970Z,50.63
2018-03-07T09:37:12.834Z,45.00
2018-03-07T09:38:12.802Z,45.00
2018-03-07T09:40:06.178Z,45.00
2018-03-07T09:41:06.126Z,45.00
2018-03-07T09:42:58.970Z,28.13
2018-03-07T09:43:58.948Z,39.38
2018-03-07T09:45:52.322Z,33.75
2018-03-07T09:46:52.289Z,39.38
2018-03-07T09:48:45.145Z,39.38
2018-03-07T09:49:45.124Z,45.00
2018-03-07T09:51:37.980Z,39.38
2018-03-07T09:52:37.944Z,39.38
2018-03-07T09:54:31.295Z,39.38
2018-03-07T09:55:31.271Z,45.00
2018-03-07T09:57:24.706Z,45.00
2018-03-07T09:58:24.597Z,50.63
2018-03-07T10:00:17.942Z,56.25
2018-03-07T10:01:17.916Z,56.25
2018-03-07T10:03:11.277Z,39.38
2018-03-07T10:04:11.242Z,28.13
2018-03-07T10:06:04.587Z,33.75
2018-03-07T10:07:04.569Z,33.75
2018-03-07T10:08:57.923Z,39.38
2018-03-07T10:09:57.883Z,45.00
2018-03-07T10:11:51.314Z,45.00
2018-03-07T10:12:51.210Z,50.63
2018-03-07T10:14:44.574Z,45.00
2018-03-07T10:15:44.531Z,39.38
2018-03-07T10:17:37.875Z,39.38
2018-03-07T10:18:37.858Z,39.38
2018-03-07T10:20:31.219Z,50.63
2018-03-07T10:21:31.187Z,45.00
2018-03-07T10:23:24.532Z,28.13
2018-03-07T10:24:24.510Z,39.38
2018-03-07T10:26:17.880Z,50.63
2018-03-07T10:27:17.851Z,50.63
2018-03-07T10:29:11.207Z,39.38
2018-03-07T10:30:11.172Z,56.25
2018-03-07T10:32:04.545Z,56.25
2018-03-07T10:33:04.539Z,56.25
2018-03-07T10:34:57.867Z,67.50
2018-03-07T10:35:57.843Z,67.50
2018-03-07T10:37:50.711Z,67.50
2018-03-07T10:38:50.673Z,73.13
2018-03-07T10:40:44.019Z,73.13
2018-03-07T10:41:44.001Z,73.13
2018-03-07T10:43:36.875Z,67.50
2018-03-07T10:44:36.833Z,67.50
2018-03-07T10:46:29.692Z,67.50
2018-03-07T10:47:29.665Z,61.88
2018-03-07T10:49:22.544Z,61.88
2018-03-07T10:50:22.507Z,61.88
2018-03-07T10:52:15.870Z,50.63
2018-03-07T10:53:15.829Z,39.38
2018-03-07T10:55:09.196Z,22.50
2018-03-07T10:56:09.150Z,22.50
2018-03-07T10:58:02.506Z,16.88
2018-03-07T10:59:02.493Z,16.88
2018-03-07T11:00:55.347Z,28.13
2018-03-07T11:01:55.312Z,28.13
2018-03-07T11:03:48.658Z,39.38
2018-03-07T11:04:48.636Z,45.00
2018-03-07T11:06:41.999Z,28.13
2018-03-07T11:07:41.974Z,22.50
2018-03-07T11:09:35.304Z,16.88
2018-03-07T11:10:35.279Z,22.50
2018-03-07T11:12:28.644Z,22.50
2018-03-07T11:13:28.608Z,39.38
2018-03-07T11:15:21.950Z,61.88
2018-03-07T11:16:21.934Z,78.75
2018-03-07T11:18:15.313Z,67.50
2018-03-07T11:19:15.253Z,67.50
2018-03-07T11:21:08.608Z,50.63
2018-03-07T11:22:08.587Z,45.00
2018-03-07T11:24:01.461Z,45.00
2018-03-07T11:25:01.429Z,33.75
2018-03-07T11:26:54.275Z,39.38
2018-03-07T11:27:54.259Z,28.13
2018-03-07T11:29:47.133Z,11.25
2018-03-07T11:30:47.157Z,11.25
2018-03-07T11:32:40.503Z,11.25
2018-03-07T11:33:40.503Z,11.25
2018-03-07T11:35:33.852Z,11.25
2018-03-07T11:36:33.799Z,16.88
2018-03-07T11:38:27.273Z,16.88
2018-03-07T11:39:27.230Z,16.88
2018-03-07T11:41:20.506Z,39.38
2018-03-07T11:42:20.470Z,39.38
2018-03-07T11:44:13.819Z,56.25
2018-03-07T11:45:13.797Z,56.25
2018-03-07T11:47:07.158Z,28.13
2018-03-07T11:48:07.117Z,33.75
2018-03-07T11:50:00.466Z,45.00
2018-03-07T11:51:00.437Z,67.50
2018-03-07T11:52:53.302Z,61.88
2018-03-07T11:53:53.267Z,61.88
2018-03-07T11:55:46.610Z,45.00
2018-03-07T11:56:46.593Z,45.00
2018-03-07T11:58:39.952Z,28.13
2018-03-07T11:59:39.921Z,28.13
2018-03-07T12:01:33.262Z,33.75
2018-03-07T12:02:33.245Z,33.75
2018-03-07T12:04:26.603Z,16.88
2018-03-07T12:05:26.565Z,22.50
2018-03-07T12:07:19.910Z,39.38
2018-03-07T12:08:19.888Z,33.75
2018-03-07T12:10:12.753Z,50.63
2018-03-07T12:11:12.716Z,67.50
2018-03-07T12:13:05.568Z,73.13
2018-03-07T12:14:05.544Z,73.13
2018-03-07T12:15:58.898Z,39.38
2018-03-07T12:16:58.859Z,33.75
2018-03-07T12:18:52.220Z,45.00
2018-03-07T12:19:52.196Z,50.63
2018-03-07T12:21:45.552Z,33.75
2018-03-07T12:22:45.511Z,33.75
2018-03-07T12:24:38.862Z,61.88
2018-03-07T12:25:38.858Z,67.50
2018-03-07T12:27:31.735Z,56.25
2018-03-07T12:28:31.673Z,56.25
2018-03-07T12:30:24.525Z,39.38
2018-03-07T12:31:24.505Z,39.38
2018-03-07T12:33:17.857Z,33.75
2018-03-07T12:34:17.825Z,28.13
2018-03-07T12:36:11.168Z,11.25
2018-03-07T12:37:11.145Z,11.25
2018-03-07T12:39:04.508Z,5.63
2018-03-07T12:40:04.469Z,5.63
2018-03-07T12:41:57.327Z,5.63
2018-03-07T12:42:57.304Z,5.63
2018-03-07T12:44:50.668Z,5.63
2018-03-07T12:45:50.625Z,5.63
2018-03-07T12:47:43.971Z,16.88
2018-03-07T12:48:43.947Z,16.88
2018-03-07T12:50:37.315Z,16.88
2018-03-07T12:51:37.277Z,28.13
2018-03-07T12:53:30.136Z,45.00
2018-03-07T12:54:30.113Z,39.38
2018-03-07T12:56:22.991Z,33.75
2018-03-07T12:57:22.951Z,28.13
2018-03-07T12:59:16.298Z,22.50
2018-03-07T13:00:16.280Z,16.88
2018-03-07T13:02:09.654Z,11.25
2018-03-07T13:03:09.598Z,11.25
2018-03-07T13:05:02.945Z,11.25
2018-03-07T13:06:02.924Z,16.88
2018-03-07T13:07:56.880Z,22.50
2018-03-07T13:08:56.274Z,22.50
2018-03-07T13:10:49.605Z,16.88
2018-03-07T13:11:49.586Z,11.25
2018-03-07T13:13:42.945Z,5.63
2018-03-07T13:14:42.909Z,5.63
2018-03-07T13:16:36.282Z,5.63
2018-03-07T13:17:36.252Z,5.63
2018-03-07T13:19:29.113Z,5.63
2018-03-07T13:20:29.078Z,5.63
2018-03-07T13:22:22.421Z,11.25
2018-03-07T13:23:22.400Z,11.25
2018-03-07T13:25:15.769Z,16.88
2018-03-07T13:26:15.725Z,28.13
2018-03-07T13:28:09.071Z,45.00
2018-03-07T13:29:09.050Z,50.63
2018-03-07T13:31:02.427Z,50.63
2018-03-07T13:32:02.376Z,45.00
2018-03-07T13:33:55.718Z,45.00
2018-03-07T13:34:55.693Z,56.25
2018-03-07T13:36:49.058Z,67.50
2018-03-07T13:37:49.022Z,67.50
2018-03-07T13:39:42.374Z,61.88
2018-03-07T13:40:42.345Z,61.88
2018-03-07T13:42:35.209Z,45.00
2018-03-07T13:43:35.177Z,39.38
2018-03-07T13:45:28.518Z,33.75
2018-03-07T13:46:28.505Z,28.13
2018-03-07T13:48:21.873Z,22.50
2018-03-07T13:49:21.834Z,16.88
2018-03-07T13:51:15.189Z,16.88
2018-03-07T13:52:15.153Z,16.88
2018-03-07T13:54:08.516Z,16.88
2018-03-07T13:55:08.481Z,22.50
2018-03-07T13:57:02.325Z,50.63
2018-03-07T13:58:02.314Z,56.25
2018-03-07T13:59:55.663Z,56.25
2018-03-07T14:00:55.627Z,50.63
2018-03-07T14:02:48.978Z,39.38
2018-03-07T14:03:48.957Z,39.38
2018-03-07T14:05:41.832Z,45.00
2018-03-07T14:06:41.787Z,39.38
2018-03-07T14:08:35.154Z,33.75
2018-03-07T14:09:35.128Z,33.75
2018-03-07T14:11:28.487Z,39.38
2018-03-07T14:12:28.444Z,45.00
2018-03-07T14:14:21.801Z,45.00
2018-03-07T14:15:21.778Z,39.38
2018-03-07T14:17:15.155Z,28.13
2018-03-07T14:18:15.112Z,16.88
2018-03-07T14:20:07.967Z,16.88
2018-03-07T14:21:07.944Z,11.25
2018-03-07T14:23:01.304Z,11.25
2018-03-07T14:24:01.263Z,11.25
2018-03-07T14:25:54.609Z,11.25
2018-03-07T14:26:54.595Z,11.25
2018-03-07T14:28:47.955Z,16.88
2018-03-07T14:29:47.913Z,22.50
2018-03-07T14:31:41.281Z,50.63
2018-03-07T14:32:41.251Z,50.63
2018-03-07T14:34:34.612Z,56.25
2018-03-07T14:35:34.582Z,45.00
2018-03-07T14:37:27.421Z,61.88
2018-03-07T14:38:27.402Z,151.88
2018-03-07T14:40:20.766Z,56.25
2018-03-07T14:41:20.726Z,78.75
2018-03-07T14:43:14.087Z,106.88
2018-03-07T14:44:14.055Z,118.13
2018-03-07T14:46:07.423Z,78.75
2018-03-07T14:47:07.383Z,140.63
2018-03-07T14:49:00.731Z,101.25
2018-03-07T14:50:00.718Z,151.88
2018-03-07T14:51:54.076Z,157.50
2018-03-07T14:52:54.038Z,157.50
2018-03-07T14:54:47.387Z,135.00
2018-03-07T14:55:47.364Z,118.13
2018-03-07T14:57:40.745Z,56.25
2018-03-07T14:58:40.703Z,118.13
2018-03-07T15:00:34.212Z,67.50
2018-03-07T15:01:34.026Z,73.13
2018-03-07T15:03:27.396Z,50.63
2018-03-07T15:04:27.354Z,50.63
2018-03-07T15:06:20.781Z,33.75
2018-03-07T15:07:20.767Z,28.13
2018-03-07T15:09:13.649Z,22.50
2018-03-07T15:10:13.594Z,22.50
2018-03-07T15:12:06.452Z,11.25
2018-03-07T15:13:06.428Z,5.63
2018-03-07T15:14:59.308Z,0.00
2018-03-07T15:15:59.259Z,0.00
2018-03-07T15:17:52.625Z,0.00
2018-03-07T15:18:52.591Z,0.00
2018-03-07T15:20:45.955Z,0.00
2018-03-07T15:21:45.916Z,0.00
2018-03-07T15:23:38.774Z,5.63
2018-03-07T15:24:38.747Z,5.63
2018-03-07T15:26:32.119Z,0.00
2018-03-07T15:27:32.099Z,0.00
2018-03-07T15:29:25.420Z,5.63
2018-03-07T15:30:25.407Z,5.63
2018-03-07T15:32:18.777Z,0.00
2018-03-07T15:33:18.737Z,0.00
2018-03-07T15:35:11.586Z,0.00
2018-03-07T15:36:11.567Z,0.00
2018-03-07T15:38:04.427Z,0.00
2018-03-07T15:39:04.390Z,0.00
2018-03-07T15:40:57.240Z,0.00
2018-03-07T15:41:57.215Z,0.00
2018-03-07T15:43:50.574Z,0.00
2018-03-07T15:44:50.535Z,0.00
2018-03-07T15:46:43.391Z,5.63
2018-03-07T15:47:43.360Z,5.63
2018-03-07T15:49:36.717Z,28.13
2018-03-07T15:50:36.681Z,50.63
2018-03-07T15:52:30.019Z,95.63
2018-03-07T15:53:29.999Z,101.25
2018-03-07T15:55:22.860Z,101.25
2018-03-07T15:56:22.822Z,101.25
2018-03-07T15:58:16.163Z,101.25
2018-03-07T15:59:16.140Z,101.25
2018-03-07T16:01:09.005Z,101.25
2018-03-07T16:02:08.966Z,101.25
2018-03-07T16:04:01.816Z,101.25
2018-03-07T16:05:01.798Z,95.63
2018-03-07T16:06:54.661Z,90.00
2018-03-07T16:07:54.624Z,84.38
2018-03-07T16:09:47.973Z,78.75
2018-03-07T16:10:47.949Z,61.88
2018-03-07T16:12:41.303Z,56.25
2018-03-07T16:13:41.268Z,67.50
2018-03-07T16:15:34.647Z,61.88
2018-03-07T16:16:34.587Z,50.63
2018-03-07T16:18:27.950Z,11.25
2018-03-07T16:19:27.911Z,11.25
2018-03-07T16:21:20.765Z,11.25
2018-03-07T16:22:20.741Z,11.25
2018-03-07T16:24:14.106Z,5.63
2018-03-07T16:25:14.063Z,5.63
2018-03-07T16:27:07.421Z,5.63
2018-03-07T16:28:07.397Z,5.63
2018-03-07T16:30:00.269Z,5.63
2018-03-07T16:31:00.233Z,5.63
2018-03-07T16:32:53.579Z,5.63
2018-03-07T16:33:53.556Z,5.63
2018-03-07T16:35:46.420Z,5.63
2018-03-07T16:36:46.381Z,5.63
2018-03-07T16:38:39.725Z,5.63
2018-03-07T16:39:39.726Z,5.63
2018-03-07T16:41:33.068Z,5.63
2018-03-07T16:42:33.031Z,5.63
2018-03-07T16:44:26.377Z,5.63
2018-03-07T16:45:26.350Z,5.63
2018-03-07T16:47:19.710Z,16.88
2018-03-07T16:48:19.670Z,11.25
2018-03-07T16:50:13.018Z,5.63
2018-03-07T16:51:12.992Z,5.63
2018-03-07T16:53:06.357Z,5.63
2018-03-07T16:54:06.317Z,5.63
2018-03-07T16:55:59.666Z,5.63
2018-03-07T16:56:59.662Z,0.00
2018-03-07T16:58:53.005Z,0.00
2018-03-07T16:59:52.969Z,0.00
2018-03-07T17:01:46.332Z,0.00
2018-03-07T17:02:46.316Z,0.00
2018-03-07T17:04:39.668Z,0.00
2018-03-07T17:05:39.634Z,0.00
2018-03-07T17:07:32.482Z,0.00
2018-03-07T17:08:32.459Z,0.00
2018-03-07T17:10:25.850Z,0.00
2018-03-07T17:11:25.786Z,0.00
2018-03-07T17:13:18.685Z,0.00
2018-03-07T17:14:18.614Z,0.00
2018-03-07T17:16:11.478Z,0.00
2018-03-07T17:17:11.440Z,0.00
2018-03-07T17:19:04.787Z,0.00
2018-03-07T17:20:04.761Z,0.00
2018-03-07T17:21:58.163Z,0.00
2018-03-07T17:22:58.108Z,0.00
2018-03-07T17:24:50.954Z,0.00
2018-03-07T17:25:50.928Z,0.00
2018-03-07T17:27:44.312Z,0.00
2018-03-07T17:28:44.274Z,0.00
2018-03-07T17:30:37.615Z,0.00
2018-03-07T17:31:37.599Z,0.00
2018-03-07T17:33:30.967Z,0.00
2018-03-07T17:34:30.929Z,0.00
2018-03-07T17:36:24.277Z,0.00
2018-03-07T17:37:24.251Z,0.00
2018-03-07T17:39:17.119Z,0.00
2018-03-07T17:40:17.087Z,0.00
2018-03-07T17:42:10.441Z,0.00
2018-03-07T17:43:10.410Z,0.00
2018-03-07T17:45:03.775Z,0.00
2018-03-07T17:46:03.735Z,0.00
2018-03-07T17:47:57.094Z,0.00
2018-03-07T17:48:57.067Z,0.00
2018-03-07T17:50:50.434Z,0.00
2018-03-07T17:51:50.410Z,0.00
2018-03-07T17:53:43.748Z,0.00
2018-03-07T17:54:43.723Z,0.00
2018-03-07T17:56:37.089Z,0.00
2018-03-07T17:57:37.055Z,0.00
2018-03-07T17:59:30.414Z,0.00
2018-03-07T18:00:30.390Z,0.00
2018-03-07T18:02:23.758Z,0.00
2018-03-07T18:03:23.717Z,0.00
2018-03-07T18:05:17.073Z,0.00
2018-03-07T18:06:17.049Z,0.00
2018-03-07T18:08:10.404Z,0.00
2018-03-07T18:10:08.800Z,0.00
2018-03-07T18:12:27.602Z,0.00
2018-03-07T18:13:27.582Z,0.00
2018-03-07T18:15:20.963Z,0.00
2018-03-07T18:16:20.910Z,0.00
2018-03-07T18:18:14.256Z,0.00
2018-03-07T18:19:14.282Z,0.00
2018-03-07T18:21:04.014Z,0.00
2018-03-07T18:22:21.832Z,0.00
2018-03-07T18:23:21.764Z,0.00
2018-03-07T18:25:15.130Z,0.00
2018-03-07T18:26:15.068Z,0.00
2018-03-07T18:28:08.468Z,0.00
2018-03-07T18:29:08.401Z,0.00
2018-03-07T18:31:01.745Z,0.00
2018-03-07T18:32:36.211Z,0.00
2018-03-07T18:33:36.185Z,0.00
2018-03-07T18:35:29.051Z,0.00
2018-03-07T18:36:29.006Z,0.00
2018-03-07T18:38:21.852Z,0.00
2018-03-07T18:39:21.830Z,0.00
2018-03-07T18:40:31.832Z,0.00
2018-03-07T18:41:31.790Z,0.00
2018-03-07T18:43:24.641Z,0.00
2018-03-07T18:44:24.623Z,0.00
2018-03-07T18:46:17.976Z,0.00
2018-03-07T18:47:17.937Z,0.00
2018-03-07T18:49:11.392Z,0.00
2018-03-07T18:50:11.269Z,0.00
2018-03-07T18:52:04.148Z,0.00
2018-03-07T18:53:04.103Z,0.00
2018-03-07T18:54:56.955Z,0.00